Time;durP1;ratioP1;P1;durP2;ratioP2;P2;SDS_P1;SDS_P2;PMS_P1;PMS_P2;Temp;Humidity;BMP_temperature;BMP_pressure;BME280_temperature;BME280_humidity;BME280_pressure;Samples;Min_cycle;Max_cycle;Signal;HPM_P1;HPM_P2
2022/07/18 00:00:11;;;;;;;16.87;4.20;;;;;;;;;;745421;186;919273;-56
2022/07/18 00:02:37;;;;;;;8.75;4.82;;;;;;;;;;745116;185;902500;-55
2022/07/18 00:05:03;;;;;;;5.37;3.63;;;;;;;;;;749953;184;918597;-56
2022/07/18 00:07:29;;;;;;;3.90;3.03;;;;;;;;;;750897;184;919749;-56
2022/07/18 00:09:55;;;;;;;6.40;3.60;;;;;;;;;;753962;185;920817;-58
2022/07/18 00:12:21;;;;;;;7.33;4.30;;;;;;;;;;753608;185;920757;-56
2022/07/18 00:14:47;;;;;;;5.83;3.80;;;;;;;;;;747561;185;919400;-56
2022/07/18 00:17:13;;;;;;;6.40;4.43;;;;;;;;;;750193;185;921222;-63
2022/07/18 00:19:39;;;;;;;6.80;4.30;;;;;;;;;;749816;186;919842;-55
2022/07/18 00:22:04;;;;;;;7.20;4.60;;;;;;;;;;749933;185;919340;-55
2022/07/18 00:24:31;;;;;;;7.05;3.95;;;;;;;;;;750230;184;916322;-58
2022/07/18 00:26:56;;;;;;;4.93;3.70;;;;;;;;;;756964;185;916961;-59
2022/07/18 00:29:22;;;;;;;5.90;3.20;;;;;;;;;;737241;185;919307;-55
2022/07/18 00:31:48;;;;;;;5.30;3.80;;;;;;;;;;755835;182;918590;-55
2022/07/18 00:34:14;;;;;;;6.40;4.13;;;;;;;;;;756476;184;910953;-58
2022/07/18 00:36:39;;;;;;;5.83;3.90;;;;;;;;;;752614;185;917743;-58
2022/07/18 00:39:05;;;;;;;5.73;3.83;;;;;;;;;;746690;185;918141;-56
2022/07/18 00:41:31;;;;;;;10.00;4.63;;;;;;;;;;757009;184;927272;-58
2022/07/18 00:43:57;;;;;;;4.80;3.80;;;;;;;;;;749677;185;919560;-56
2022/07/18 00:46:23;;;;;;;5.63;3.17;;;;;;;;;;750164;185;918338;-55
2022/07/18 00:48:49;;;;;;;7.10;4.05;;;;;;;;;;753062;185;908592;-55
2022/07/18 00:51:16;;;;;;;3.93;2.87;;;;;;;;;;761493;185;918094;-59
2022/07/18 00:53:40;;;;;;;7.27;4.17;;;;;;;;;;747526;184;918492;-56
2022/07/18 00:56:06;;;;;;;6.27;4.10;;;;;;;;;;753819;185;918404;-55
2022/07/18 00:58:32;;;;;;;7.30;3.97;;;;;;;;;;755571;185;922186;-55
2022/07/18 01:03:30;;;;;;;6.70;3.80;;;;;;;;;;752623;185;919365;-56
2022/07/18 01:05:56;;;;;;;5.43;3.70;;;;;;;;;;750954;187;916892;-58
2022/07/18 01:08:21;;;;;;;4.90;3.80;;;;;;;;;;757922;185;918093;-57
2022/07/18 01:10:47;;;;;;;5.30;4.17;;;;;;;;;;748595;186;919702;-55
2022/07/18 01:13:13;;;;;;;9.77;3.63;;;;;;;;;;750111;185;920239;-55
2022/07/18 01:15:39;;;;;;;6.80;3.57;;;;;;;;;;753003;185;919942;-56
2022/07/18 01:18:05;;;;;;;7.43;4.22;;;;;;;;;;751937;185;919250;-59
2022/07/18 01:20:31;;;;;;;8.63;4.13;;;;;;;;;;748278;185;918029;-55
2022/07/18 01:22:56;;;;;;;6.83;4.37;;;;;;;;;;754818;185;918181;-55
2022/07/18 01:25:22;;;;;;;8.63;5.40;;;;;;;;;;747922;185;921816;-58
2022/07/18 01:27:48;;;;;;;8.47;4.90;;;;;;;;;;755360;184;1020212;-56
2022/07/18 01:30:14;;;;;;;7.60;5.20;;;;;;;;;;752126;185;919572;-57
2022/07/18 01:32:40;;;;;;;5.73;4.67;;;;;;;;;;752456;187;920485;-55
2022/07/18 01:35:06;;;;;;;5.60;4.47;;;;;;;;;;748769;185;917186;-60
2022/07/18 01:37:32;;;;;;;6.30;4.60;;;;;;;;;;752611;185;915124;-60
2022/07/18 01:39:58;;;;;;;5.37;3.47;;;;;;;;;;754134;185;919490;-57
2022/07/18 01:42:24;;;;;;;5.73;3.00;;;;;;;;;;753215;184;918755;-58
2022/07/18 01:44:49;;;;;;;8.55;3.78;;;;;;;;;;754743;185;919432;-58
2022/07/18 01:47:15;;;;;;;9.27;4.40;;;;;;;;;;756878;185;919442;-61
2022/07/18 01:49:41;;;;;;;7.97;4.00;;;;;;;;;;752000;185;919559;-58
2022/07/18 01:52:07;;;;;;;4.40;3.07;;;;;;;;;;749763;184;920023;-60
2022/07/18 01:54:33;;;;;;;6.50;4.03;;;;;;;;;;756781;185;917468;-61
2022/07/18 01:56:59;;;;;;;7.80;3.40;;;;;;;;;;748714;182;919699;-58
2022/07/18 01:59:24;;;;;;;5.50;3.97;;;;;;;;;;750731;185;940477;-60
2022/07/18 02:01:50;;;;;;;8.33;3.80;;;;;;;;;;755097;185;920598;-58
2022/07/18 02:04:16;;;;;;;8.27;3.97;;;;;;;;;;755674;183;919458;-61
2022/07/18 02:06:42;;;;;;;8.13;3.60;;;;;;;;;;749141;185;1071026;-56
2022/07/18 02:09:08;;;;;;;6.30;3.60;;;;;;;;;;750480;185;919744;-59
2022/07/18 02:11:34;;;;;;;6.63;3.47;;;;;;;;;;756842;185;915045;-56
2022/07/18 02:13:59;;;;;;;7.43;4.57;;;;;;;;;;752862;185;914112;-56
2022/07/18 02:16:25;;;;;;;5.83;4.30;;;;;;;;;;747917;186;918836;-60
2022/07/18 02:18:51;;;;;;;9.10;4.30;;;;;;;;;;755036;185;921802;-60
2022/07/18 02:21:17;;;;;;;5.80;4.20;;;;;;;;;;749176;185;918890;-57
2022/07/18 02:23:43;;;;;;;6.23;4.20;;;;;;;;;;757110;184;919385;-60
2022/07/18 02:26:09;;;;;;;5.80;4.23;;;;;;;;;;754167;185;717521;-60
2022/07/18 02:28:34;;;;;;;6.57;4.50;;;;;;;;;;754744;185;920425;-58
2022/07/18 02:31:00;;;;;;;11.77;3.87;;;;;;;;;;752068;185;891831;-57
2022/07/18 02:33:27;;;;;;;5.27;3.83;;;;;;;;;;751943;185;927139;-57
2022/07/18 02:35:52;;;;;;;5.87;3.97;;;;;;;;;;756626;185;818105;-59
2022/07/18 02:38:18;;;;;;;7.13;4.20;;;;;;;;;;751886;185;818598;-60
2022/07/18 02:40:44;;;;;;;4.03;3.20;;;;;;;;;;757042;185;920309;-59
2022/07/18 02:43:10;;;;;;;7.43;4.30;;;;;;;;;;760406;184;800600;-59
2022/07/18 02:45:36;;;;;;;5.90;4.20;;;;;;;;;;749843;185;626761;-56
2022/07/18 02:48:02;;;;;;;5.53;3.67;;;;;;;;;;756745;184;619622;-60
2022/07/18 02:50:28;;;;;;;5.13;3.90;;;;;;;;;;755036;185;644609;-60
2022/07/18 02:52:53;;;;;;;4.90;3.70;;;;;;;;;;752548;185;913976;-57
2022/07/18 02:55:20;;;;;;;8.60;3.80;;;;;;;;;;751005;185;918793;-60
2022/07/18 02:57:46;;;;;;;5.23;3.67;;;;;;;;;;752625;185;917568;-57
2022/07/18 03:00:11;;;;;;;5.07;3.67;;;;;;;;;;758744;185;917549;-63
2022/07/18 03:02:37;;;;;;;5.00;3.80;;;;;;;;;;748061;185;903955;-59
2022/07/18 03:05:04;;;;;;;7.43;3.97;;;;;;;;;;739019;185;891224;-57
2022/07/18 03:07:29;;;;;;;5.23;3.60;;;;;;;;;;754591;185;918645;-59
2022/07/18 03:09:55;;;;;;;7.47;3.90;;;;;;;;;;751517;186;918662;-61
2022/07/18 03:12:21;;;;;;;6.87;4.32;;;;;;;;;;748645;186;919339;-59
2022/07/18 03:14:47;;;;;;;5.75;4.45;;;;;;;;;;751438;185;918485;-57
2022/07/18 03:17:13;;;;;;;8.27;4.70;;;;;;;;;;752912;187;923877;-59
2022/07/18 03:19:39;;;;;;;7.27;4.93;;;;;;;;;;750201;182;919443;-56
2022/07/18 03:22:05;;;;;;;5.33;4.00;;;;;;;;;;752130;185;919558;-59
2022/07/18 03:24:31;;;;;;;8.13;4.47;;;;;;;;;;753015;186;915371;-56
2022/07/18 03:26:56;;;;;;;7.05;3.87;;;;;;;;;;751392;183;871415;-57
2022/07/18 03:29:22;;;;;;;8.43;5.20;;;;;;;;;;754302;185;919169;-56
2022/07/18 03:31:48;;;;;;;5.63;4.70;;;;;;;;;;753310;186;918485;-60
2022/07/18 03:34:14;;;;;;;5.57;4.10;;;;;;;;;;746820;187;919138;-60
2022/07/18 03:36:40;;;;;;;8.90;5.07;;;;;;;;;;751804;185;918939;-60
2022/07/18 03:39:06;;;;;;;9.33;4.90;;;;;;;;;;754457;184;816947;-56
2022/07/18 03:41:31;;;;;;;6.30;4.97;;;;;;;;;;751243;185;919112;-57
2022/07/18 03:43:57;;;;;;;7.13;4.60;;;;;;;;;;750773;183;818530;-60
2022/07/18 03:46:23;;;;;;;9.83;6.33;;;;;;;;;;751764;185;816896;-57
2022/07/18 03:48:49;;;;;;;8.27;5.53;;;;;;;;;;754647;185;797179;-61
2022/07/18 03:51:15;;;;;;;9.30;5.63;;;;;;;;;;750285;185;921037;-60
2022/07/18 03:53:41;;;;;;;7.70;5.30;;;;;;;;;;749141;185;919530;-59
2022/07/18 03:56:07;;;;;;;8.20;6.40;;;;;;;;;;754554;185;935573;-60
2022/07/18 03:58:33;;;;;;;7.13;6.03;;;;;;;;;;749820;183;913211;-60
2022/07/18 04:00:58;;;;;;;7.93;6.13;;;;;;;;;;750545;185;910037;-57
2022/07/18 04:03:24;;;;;;;15.20;6.07;;;;;;;;;;754275;185;919589;-57
2022/07/18 04:05:50;;;;;;;13.23;7.87;;;;;;;;;;749614;184;918907;-61
2022/07/18 04:08:16;;;;;;;7.70;6.60;;;;;;;;;;750367;185;919485;-59
2022/07/18 04:10:43;;;;;;;9.00;7.47;;;;;;;;;;752345;185;919349;-57
2022/07/18 04:13:08;;;;;;;14.10;8.13;;;;;;;;;;746624;186;918460;-60
2022/07/18 04:15:33;;;;;;;9.97;7.40;;;;;;;;;;745033;186;920445;-59
2022/07/18 04:17:59;;;;;;;14.10;7.53;;;;;;;;;;750710;185;918641;-60
2022/07/18 04:20:25;;;;;;;15.97;8.93;;;;;;;;;;754370;183;919008;-56
2022/07/18 04:22:51;;;;;;;8.83;6.80;;;;;;;;;;750211;185;917385;-59
2022/07/18 04:25:17;;;;;;;13.80;8.97;;;;;;;;;;748246;183;919210;-59
2022/07/18 04:27:43;;;;;;;11.83;7.63;;;;;;;;;;753360;185;916500;-57
2022/07/18 04:30:09;;;;;;;10.97;8.20;;;;;;;;;;748692;185;918085;-59
2022/07/18 04:32:34;;;;;;;11.97;7.40;;;;;;;;;;750064;186;829681;-57
2022/07/18 04:35:01;;;;;;;15.52;8.20;;;;;;;;;;760542;184;920214;-59
2022/07/18 04:37:27;;;;;;;9.97;7.77;;;;;;;;;;760875;181;915216;-60
2022/07/18 04:39:53;;;;;;;12.70;8.43;;;;;;;;;;750564;185;914980;-59
2022/07/18 04:42:18;;;;;;;12.60;7.20;;;;;;;;;;748510;185;922004;-57
2022/07/18 04:44:44;;;;;;;12.73;7.00;;;;;;;;;;753906;185;813621;-56
2022/07/18 04:47:10;;;;;;;12.10;7.00;;;;;;;;;;746049;185;919617;-59
2022/07/18 04:49:36;;;;;;;6.80;5.70;;;;;;;;;;749119;185;894832;-57
2022/07/18 04:52:02;;;;;;;9.45;6.10;;;;;;;;;;755596;185;919229;-60
2022/07/18 04:54:28;;;;;;;7.27;5.63;;;;;;;;;;741573;185;919280;-60
2022/07/18 04:56:54;;;;;;;9.07;5.53;;;;;;;;;;748913;186;924806;-57
2022/07/18 04:59:19;;;;;;;9.70;5.03;;;;;;;;;;753071;185;919124;-57
2022/07/18 05:01:45;;;;;;;6.93;4.87;;;;;;;;;;748588;185;919773;-57
2022/07/18 05:04:11;;;;;;;9.67;5.80;;;;;;;;;;748984;183;911759;-60
2022/07/18 05:06:37;;;;;;;10.23;4.77;;;;;;;;;;752971;184;816804;-57
2022/07/18 05:09:03;;;;;;;8.13;5.60;;;;;;;;;;750772;185;919211;-61
2022/07/18 05:11:29;;;;;;;6.23;4.57;;;;;;;;;;745983;185;918308;-61
2022/07/18 05:13:55;;;;;;;7.30;4.33;;;;;;;;;;751114;184;843164;-60
2022/07/18 05:16:21;;;;;;;9.00;4.70;;;;;;;;;;750400;184;760847;-57
2022/07/18 05:18:47;;;;;;;8.07;3.80;;;;;;;;;;748016;184;901681;-58
2022/07/18 05:21:13;;;;;;;8.10;4.40;;;;;;;;;;748649;185;813631;-60
2022/07/18 05:23:38;;;;;;;7.60;4.10;;;;;;;;;;754752;183;915825;-57
2022/07/18 05:26:04;;;;;;;6.37;5.13;;;;;;;;;;749325;185;917315;-59
2022/07/18 05:28:30;;;;;;;6.10;3.97;;;;;;;;;;748168;185;919092;-56
2022/07/18 05:30:56;;;;;;;6.93;3.80;;;;;;;;;;750553;185;918338;-60
2022/07/18 05:33:22;;;;;;;6.97;3.60;;;;;;;;;;765087;181;919690;-57
2022/07/18 05:35:48;;;;;;;5.10;3.27;;;;;;;;;;739399;185;919187;-60
2022/07/18 05:38:14;;;;;;;5.57;3.80;;;;;;;;;;750529;185;924697;-57
2022/07/18 05:40:39;;;;;;;7.20;3.53;;;;;;;;;;754257;185;934816;-56
2022/07/18 05:43:05;;;;;;;5.10;3.30;;;;;;;;;;749935;185;827022;-57
2022/07/18 05:45:31;;;;;;;15.27;12.77;;;;;;;;;;746709;184;919311;-57
2022/07/18 05:47:57;;;;;;;19.83;15.93;;;;;;;;;;753249;186;914652;-59
2022/07/18 05:50:23;;;;;;;6.68;4.40;;;;;;;;;;750441;183;919525;-61
2022/07/18 05:52:49;;;;;;;5.77;3.10;;;;;;;;;;750775;185;918290;-61
2022/07/18 05:55:15;;;;;;;5.67;2.97;;;;;;;;;;749727;184;1615846;-57
2022/07/18 05:57:40;;;;;;;5.60;3.20;;;;;;;;;;743569;185;919256;-60
2022/07/18 06:00:07;;;;;;;6.33;2.97;;;;;;;;;;753140;185;783114;-61
2022/07/18 06:02:33;;;;;;;6.70;3.50;;;;;;;;;;742849;185;892629;-58
2022/07/18 06:04:59;;;;;;;8.63;3.20;;;;;;;;;;754318;185;919550;-62
2022/07/18 06:07:25;;;;;;;11.37;3.23;;;;;;;;;;749714;185;913182;-57
2022/07/18 06:09:51;;;;;;;5.30;3.30;;;;;;;;;;747447;184;877525;-58
2022/07/18 06:12:16;;;;;;;5.53;2.50;;;;;;;;;;753493;185;894421;-60
2022/07/18 06:14:42;;;;;;;3.80;2.47;;;;;;;;;;748862;185;920029;-58
2022/07/18 06:17:08;;;;;;;3.33;2.03;;;;;;;;;;751331;184;924687;-57
2022/07/18 06:19:34;;;;;;;14.52;8.45;;;;;;;;;;750370;185;918654;-57
2022/07/18 06:22:00;;;;;;;13.00;10.40;;;;;;;;;;750075;186;895154;-60
2022/07/18 06:24:26;;;;;;;8.93;3.13;;;;;;;;;;746265;185;919531;-62
2022/07/18 06:26:52;;;;;;;3.15;2.15;;;;;;;;;;747215;186;919849;-60
2022/07/18 06:29:17;;;;;;;4.70;2.93;;;;;;;;;;755404;185;921454;-60
2022/07/18 06:31:43;;;;;;;4.40;2.70;;;;;;;;;;749376;185;929886;-61
2022/07/18 06:34:09;;;;;;;4.40;2.33;;;;;;;;;;751254;185;820199;-58
2022/07/18 06:36:35;;;;;;;7.20;2.60;;;;;;;;;;755260;185;919796;-58
2022/07/18 06:39:08;;;;;;;7.20;3.40;;;;;;;;;;749768;185;874804;-61
2022/07/18 06:41:27;;;;;;;6.23;2.77;;;;;;;;;;750066;183;918908;-58
2022/07/18 06:43:53;;;;;;;5.50;2.97;;;;;;;;;;755606;185;920209;-60
2022/07/18 06:46:19;;;;;;;5.87;3.27;;;;;;;;;;750735;185;941602;-58
2022/07/18 06:48:44;;;;;;;10.90;2.73;;;;;;;;;;748890;185;919101;-61
2022/07/18 06:51:10;;;;;;;4.93;2.00;;;;;;;;;;752856;185;810651;-62
2022/07/18 06:53:36;;;;;;;5.70;2.30;;;;;;;;;;760725;185;919357;-61
2022/07/18 06:56:04;;;;;;;5.87;2.10;;;;;;;;;;750830;181;627161;-58
2022/07/18 06:58:30;;;;;;;4.63;1.70;;;;;;;;;;753665;185;614790;-59
2022/07/18 07:00:54;;;;;;;4.73;2.20;;;;;;;;;;754971;186;620427;-59
2022/07/18 07:03:20;;;;;;;3.80;2.00;;;;;;;;;;749717;185;914842;-60
2022/07/18 07:05:46;;;;;;;6.10;2.27;;;;;;;;;;752540;186;782181;-61
2022/07/18 07:08:13;;;;;;;3.55;1.90;;;;;;;;;;752450;184;823814;-59
2022/07/18 07:10:38;;;;;;;10.57;2.67;;;;;;;;;;751105;185;919237;-59
2022/07/18 07:13:04;;;;;;;9.40;2.37;;;;;;;;;;749434;184;919002;-59
2022/07/18 07:15:30;;;;;;;5.77;2.13;;;;;;;;;;748025;186;919932;-61
2022/07/18 07:17:55;;;;;;;3.00;2.07;;;;;;;;;;750077;184;920216;-59
2022/07/18 07:20:21;;;;;;;3.47;1.83;;;;;;;;;;750475;185;918796;-59
2022/07/18 07:22:48;;;;;;;5.30;2.83;;;;;;;;;;751342;185;943544;-59
2022/07/18 07:25:14;;;;;;;3.90;1.90;;;;;;;;;;756545;186;912001;-59
2022/07/18 07:27:40;;;;;;;5.60;2.10;;;;;;;;;;747689;185;907791;-62
2022/07/18 07:30:06;;;;;;;3.93;1.60;;;;;;;;;;748613;185;917068;-60
2022/07/18 07:32:33;;;;;;;2.77;1.70;;;;;;;;;;754472;184;899707;-59
2022/07/18 07:34:59;;;;;;;4.53;2.10;;;;;;;;;;751275;185;919145;-59
2022/07/18 07:37:25;;;;;;;6.33;2.40;;;;;;;;;;748536;185;916365;-61
2022/07/18 07:39:51;;;;;;;4.73;2.40;;;;;;;;;;749758;185;916865;-59
2022/07/18 07:42:17;;;;;;;3.80;1.53;;;;;;;;;;754410;185;817854;-58
2022/07/18 07:44:43;;;;;;;5.50;1.50;;;;;;;;;;751680;185;919286;-59
2022/07/18 07:47:08;;;;;;;6.77;1.90;;;;;;;;;;749581;185;816306;-60
2022/07/18 07:49:36;;;;;;;3.80;1.50;;;;;;;;;;756194;182;816499;-59
2022/07/18 07:52:01;;;;;;;5.40;2.00;;;;;;;;;;749353;185;919132;-59
2022/07/18 07:54:27;;;;;;;5.83;1.93;;;;;;;;;;749354;183;1023060;-58
2022/07/18 07:56:54;;;;;;;7.00;1.90;;;;;;;;;;755060;185;817867;-61
2022/07/18 07:59:19;;;;;;;8.20;2.47;;;;;;;;;;750496;185;919075;-58
2022/07/18 08:01:45;;;;;;;4.60;1.93;;;;;;;;;;751590;185;919218;-59
2022/07/18 08:04:11;;;;;;;6.33;2.10;;;;;;;;;;752051;185;921037;-61
2022/07/18 08:06:37;;;;;;;7.20;2.00;;;;;;;;;;752538;185;1030651;-58
2022/07/18 08:09:03;;;;;;;3.20;1.80;;;;;;;;;;753562;184;835500;-59
2022/07/18 08:11:29;;;;;;;11.87;2.00;;;;;;;;;;750648;185;816473;-60
2022/07/18 08:13:55;;;;;;;5.03;2.10;;;;;;;;;;756830;183;851950;-59
2022/07/18 08:16:21;;;;;;;4.15;1.48;;;;;;;;;;750469;185;917631;-58
2022/07/18 08:18:47;;;;;;;4.70;1.83;;;;;;;;;;749096;185;926946;-58
2022/07/18 08:21:14;;;;;;;3.10;1.87;;;;;;;;;;753597;185;918709;-59
2022/07/18 08:23:38;;;;;;;4.67;1.90;;;;;;;;;;750897;185;919239;-62
2022/07/18 08:26:05;;;;;;;4.60;2.07;;;;;;;;;;739430;186;918570;-60
2022/07/18 08:28:32;;;;;;;3.27;1.60;;;;;;;;;;747949;186;920097;-61
2022/07/18 08:30:58;;;;;;;4.10;1.90;;;;;;;;;;755119;185;854713;-60
2022/07/18 08:33:25;;;;;;;6.30;1.93;;;;;;;;;;749175;185;819272;-60
2022/07/18 08:35:51;;;;;;;3.27;1.27;;;;;;;;;;750282;185;918593;-62
2022/07/18 08:38:17;;;;;;;6.87;2.10;;;;;;;;;;753203;185;1178904;-61
2022/07/18 08:40:42;;;;;;;4.67;1.73;;;;;;;;;;749618;184;915540;-59
2022/07/18 08:43:08;;;;;;;7.97;2.13;;;;;;;;;;748945;184;922371;-59
2022/07/18 08:45:34;;;;;;;5.90;2.00;;;;;;;;;;754875;185;916214;-60
2022/07/18 08:48:00;;;;;;;4.03;1.50;;;;;;;;;;747568;185;919560;-59
2022/07/18 08:50:26;;;;;;;4.50;1.87;;;;;;;;;;747205;185;943083;-58
2022/07/18 08:52:52;;;;;;;4.90;1.73;;;;;;;;;;750799;185;919543;-59
2022/07/18 08:55:18;;;;;;;5.00;1.90;;;;;;;;;;750460;185;818927;-62
2022/07/18 08:57:44;;;;;;;3.13;1.60;;;;;;;;;;746163;185;917916;-61
2022/07/18 09:00:10;;;;;;;3.95;1.60;;;;;;;;;;749245;184;920584;-60
2022/07/18 09:02:36;;;;;;;3.83;2.00;;;;;;;;;;757575;185;920845;-58
2022/07/18 09:05:02;;;;;;;4.70;2.10;;;;;;;;;;750673;187;918157;-61
2022/07/18 09:07:27;;;;;;;5.50;1.60;;;;;;;;;;754887;185;918686;-60
2022/07/18 09:09:54;;;;;;;5.23;2.00;;;;;;;;;;754513;185;915619;-60
2022/07/18 09:12:20;;;;;;;7.40;2.07;;;;;;;;;;753213;185;903104;-59
2022/07/18 09:14:46;;;;;;;4.40;2.37;;;;;;;;;;749999;186;919926;-60
2022/07/18 09:17:12;;;;;;;4.10;1.83;;;;;;;;;;751527;185;918300;-58
2022/07/18 09:19:38;;;;;;;4.47;2.27;;;;;;;;;;750650;187;916829;-58
2022/07/18 09:22:10;;;;;;;4.23;1.90;;;;;;;;;;750693;185;919149;-57
2022/07/18 09:24:42;;;;;;;8.70;2.23;;;;;;;;;;748548;185;922947;-58
2022/07/18 09:27:07;;;;;;;9.53;3.03;;;;;;;;;;754405;184;919007;-60
2022/07/18 09:29:35;;;;;;;3.20;1.60;;;;;;;;;;743755;186;816914;-57
2022/07/18 09:31:59;;;;;;;6.73;1.80;;;;;;;;;;750048;185;817915;-60
2022/07/18 09:34:31;;;;;;;3.97;2.10;;;;;;;;;;750244;185;918601;-58
2022/07/18 09:36:58;;;;;;;3.43;1.60;;;;;;;;;;756040;185;917009;-61
2022/07/18 09:39:23;;;;;;;5.20;1.70;;;;;;;;;;755015;185;626702;-58
2022/07/18 09:41:48;;;;;;;3.33;1.70;;;;;;;;;;754327;185;615633;-60
2022/07/18 09:44:15;;;;;;;3.37;1.53;;;;;;;;;;756911;185;918490;-57
2022/07/18 09:47:00;;;;;;;4.10;1.53;;;;;;;;;;744633;183;911822;-57
2022/07/18 09:49:29;;;;;;;3.27;1.50;;;;;;;;;;757107;186;917666;-60
2022/07/18 09:52:00;;;;;;;5.23;1.70;;;;;;;;;;749885;185;936206;-58
2022/07/18 09:54:26;;;;;;;4.80;1.70;;;;;;;;;;753594;185;901814;-60
2022/07/18 09:56:53;;;;;;;7.45;1.85;;;;;;;;;;754031;185;820978;-58
2022/07/18 09:59:18;;;;;;;5.40;1.83;;;;;;;;;;751768;185;917657;-62
2022/07/18 10:01:44;;;;;;;3.90;1.40;;;;;;;;;;749266;186;919442;-57
2022/07/18 10:04:10;;;;;;;5.07;1.87;;;;;;;;;;752270;185;919380;-57
2022/07/18 10:06:38;;;;;;;3.60;1.73;;;;;;;;;;756901;185;710862;-57
2022/07/18 10:09:02;;;;;;;2.90;1.47;;;;;;;;;;750160;185;922405;-58
2022/07/18 10:11:28;;;;;;;4.63;1.40;;;;;;;;;;750583;186;920630;-57
2022/07/18 10:13:53;;;;;;;4.90;1.50;;;;;;;;;;755243;185;917991;-57
2022/07/18 10:16:19;;;;;;;3.50;1.13;;;;;;;;;;748588;184;921392;-60
2022/07/18 10:18:45;;;;;;;5.17;1.50;;;;;;;;;;744082;186;902216;-57
2022/07/18 10:21:11;;;;;;;4.27;1.67;;;;;;;;;;755177;185;919148;-57
2022/07/18 10:23:39;;;;;;;3.27;1.40;;;;;;;;;;749573;183;919601;-59
2022/07/18 10:26:12;;;;;;;2.53;1.20;;;;;;;;;;750139;186;916952;-58
2022/07/18 10:28:36;;;;;;;8.10;1.77;;;;;;;;;;749443;184;926144;-62
2022/07/18 10:31:08;;;;;;;5.93;2.50;;;;;;;;;;751769;185;918729;-58
2022/07/18 10:33:38;;;;;;;3.40;1.63;;;;;;;;;;753271;186;919193;-60
2022/07/18 10:36:03;;;;;;;3.70;1.70;;;;;;;;;;752114;183;921404;-57
2022/07/18 10:38:29;;;;;;;4.10;1.60;;;;;;;;;;752707;185;919259;-57
2022/07/18 10:41:01;;;;;;;5.93;1.60;;;;;;;;;;750579;187;928010;-57
2022/07/18 10:43:31;;;;;;;5.37;1.40;;;;;;;;;;747058;185;918801;-58
2022/07/18 10:45:56;;;;;;;3.50;1.70;;;;;;;;;;752475;183;919413;-60
2022/07/18 10:48:40;;;;;;;4.93;1.70;;;;;;;;;;748961;185;921010;-59
2022/07/18 10:51:06;;;;;;;3.00;1.40;;;;;;;;;;748765;183;919696;-58
2022/07/18 10:53:37;;;;;;;4.17;1.60;;;;;;;;;;757927;185;745400;-57
2022/07/18 10:56:03;;;;;;;4.87;1.47;;;;;;;;;;749342;185;918377;-59
2022/07/18 10:58:29;;;;;;;2.65;1.42;;;;;;;;;;747738;184;1164223;-59
2022/07/18 11:00:55;;;;;;;5.80;1.50;;;;;;;;;;749317;185;921047;-61
2022/07/18 11:03:21;;;;;;;4.20;1.50;;;;;;;;;;750552;184;909873;-61
2022/07/18 11:05:49;;;;;;;4.20;1.47;;;;;;;;;;749773;183;918041;-58
2022/07/18 11:08:17;;;;;;;2.47;1.20;;;;;;;;;;752002;183;917302;-61
2022/07/18 11:11:01;;;;;;;4.05;1.42;;;;;;;;;;752599;186;919133;-62
2022/07/18 11:13:40;;;;;;;3.80;1.37;;;;;;;;;;757757;184;817702;-57
2022/07/18 11:16:09;;;;;;;2.53;1.37;;;;;;;;;;756945;183;918850;-58
2022/07/18 11:18:54;;;;;;;9.00;1.77;;;;;;;;;;751463;185;922102;-58
2022/07/18 11:21:21;;;;;;;7.23;1.67;;;;;;;;;;749503;185;924560;-62
2022/07/18 11:23:46;;;;;;;4.67;2.20;;;;;;;;;;752565;185;876358;-59
2022/07/18 11:26:14;;;;;;;8.33;1.80;;;;;;;;;;749208;185;913256;-59
2022/07/18 11:28:40;;;;;;;6.97;1.90;;;;;;;;;;757288;185;848718;-57
2022/07/18 11:31:06;;;;;;;4.50;1.80;;;;;;;;;;753477;185;918423;-61
2022/07/18 11:33:32;;;;;;;2.37;1.30;;;;;;;;;;750861;185;917871;-58
2022/07/18 11:36:01;;;;;;;3.77;1.30;;;;;;;;;;757553;183;1020400;-62
2022/07/18 11:38:27;;;;;;;4.97;1.70;;;;;;;;;;749432;185;921777;-62
2022/07/18 11:40:53;;;;;;;4.50;1.50;;;;;;;;;;750980;185;820088;-61
2022/07/18 11:43:20;;;;;;;3.77;1.67;;;;;;;;;;741506;186;922906;-61
2022/07/18 11:45:46;;;;;;;4.63;1.90;;;;;;;;;;754389;185;847417;-59
2022/07/18 11:48:12;;;;;;;6.73;1.47;;;;;;;;;;752039;185;821297;-59
2022/07/18 11:50:38;;;;;;;3.30;1.40;;;;;;;;;;748767;186;918862;-61
2022/07/18 11:53:03;;;;;;;2.70;1.50;;;;;;;;;;755882;185;818344;-58
2022/07/18 11:55:33;;;;;;;3.20;1.40;;;;;;;;;;751158;183;850088;-62
2022/07/18 11:58:05;;;;;;;3.60;1.17;;;;;;;;;;749682;184;914438;-60
2022/07/18 12:00:31;;;;;;;2.47;1.20;;;;;;;;;;750414;185;915690;-61
2022/07/18 12:03:04;;;;;;;3.40;2.40;;;;;;;;;;755097;185;1012911;-59
2022/07/18 12:05:30;;;;;;;3.93;1.30;;;;;;;;;;746018;185;1074624;-58
2022/07/18 12:07:57;;;;;;;4.10;1.30;;;;;;;;;;748568;185;926925;-58
2022/07/18 12:10:24;;;;;;;2.30;1.30;;;;;;;;;;745272;183;1522636;-58
2022/07/18 12:12:50;;;;;;;5.67;1.60;;;;;;;;;;752572;183;938801;-58
2022/07/18 12:15:16;;;;;;;5.87;2.13;;;;;;;;;;749356;185;1080463;-58
2022/07/18 12:17:43;;;;;;;4.30;1.80;;;;;;;;;;752503;185;817630;-58
2022/07/18 12:20:10;;;;;;;7.70;1.43;;;;;;;;;;757161;185;919090;-58
2022/07/18 12:22:36;;;;;;;3.58;1.48;;;;;;;;;;752585;184;919111;-58
2022/07/18 12:25:02;;;;;;;11.17;2.07;;;;;;;;;;748922;183;937087;-57
2022/07/18 12:27:30;;;;;;;9.33;1.50;;;;;;;;;;751398;183;912675;-58
2022/07/18 12:30:03;;;;;;;3.57;1.20;;;;;;;;;;748911;184;891046;-59
2022/07/18 12:32:30;;;;;;;3.63;1.40;;;;;;;;;;752880;186;921392;-58
2022/07/18 12:34:57;;;;;;;8.10;1.50;;;;;;;;;;754573;185;916014;-58
2022/07/18 12:37:25;;;;;;;3.13;1.40;;;;;;;;;;755119;182;815286;-58
2022/07/18 12:39:55;;;;;;;4.47;1.40;;;;;;;;;;756343;184;816135;-58
2022/07/18 12:42:27;;;;;;;6.13;1.50;;;;;;;;;;753635;184;815034;-58
2022/07/18 12:44:52;;;;;;;2.67;1.20;;;;;;;;;;752009;185;920145;-58
2022/07/18 12:47:18;;;;;;;3.20;1.30;;;;;;;;;;749558;183;919419;-58
2022/07/18 12:49:44;;;;;;;3.73;1.30;;;;;;;;;;755607;185;902927;-57
2022/07/18 12:52:10;;;;;;;3.60;1.77;;;;;;;;;;757915;184;918224;-57
2022/07/18 12:54:36;;;;;;;5.13;1.70;;;;;;;;;;755760;185;626638;-57
2022/07/18 12:57:02;;;;;;;4.10;1.60;;;;;;;;;;758636;184;640674;-57
2022/07/18 12:59:27;;;;;;;4.70;1.67;;;;;;;;;;748691;185;616351;-57
2022/07/18 13:01:53;;;;;;;4.47;2.07;;;;;;;;;;752616;185;642267;-58
2022/07/18 13:04:19;;;;;;;7.60;2.03;;;;;;;;;;758867;185;630920;-57
2022/07/18 13:06:45;;;;;;;3.43;1.60;;;;;;;;;;753495;186;633322;-56
2022/07/18 13:09:11;;;;;;;2.87;1.60;;;;;;;;;;753293;185;620346;-55
2022/07/18 13:11:37;;;;;;;4.07;1.57;;;;;;;;;;753928;187;633365;-57
2022/07/18 13:14:02;;;;;;;3.50;1.40;;;;;;;;;;754710;186;624735;-56
2022/07/18 13:16:28;;;;;;;4.10;1.60;;;;;;;;;;751365;184;628987;-56
2022/07/18 13:18:54;;;;;;;2.77;1.30;;;;;;;;;;753999;186;742179;-57
2022/07/18 13:21:20;;;;;;;6.10;1.83;;;;;;;;;;753823;186;624312;-57
2022/07/18 13:23:46;;;;;;;6.70;1.40;;;;;;;;;;754650;185;617864;-56
2022/07/18 13:26:12;;;;;;;3.67;1.50;;;;;;;;;;756006;185;632061;-56
2022/07/18 13:28:37;;;;;;;6.20;1.80;;;;;;;;;;758131;185;634008;-58
2022/07/18 13:31:03;;;;;;;3.20;1.33;;;;;;;;;;751844;185;634245;-55
2022/07/18 13:33:29;;;;;;;5.00;1.60;;;;;;;;;;752747;186;617247;-61
2022/07/18 13:35:55;;;;;;;4.23;1.40;;;;;;;;;;755957;185;618939;-57
2022/07/18 13:38:21;;;;;;;3.13;1.20;;;;;;;;;;747886;185;627255;-57
2022/07/18 13:40:47;;;;;;;4.10;1.50;;;;;;;;;;756945;184;629883;-57
2022/07/18 13:43:13;;;;;;;3.00;1.20;;;;;;;;;;743194;185;636801;-58
2022/07/18 13:45:39;;;;;;;3.77;1.60;;;;;;;;;;758730;185;611070;-57
2022/07/18 13:48:05;;;;;;;7.07;2.13;;;;;;;;;;754357;185;627243;-58
2022/07/18 13:50:30;;;;;;;5.30;2.10;;;;;;;;;;754217;184;626387;-57
2022/07/18 13:52:56;;;;;;;7.53;1.90;;;;;;;;;;760401;184;615114;-58
2022/07/18 13:55:22;;;;;;;6.37;1.67;;;;;;;;;;746538;183;630705;-57
2022/07/18 13:57:48;;;;;;;4.83;1.50;;;;;;;;;;753684;186;713042;-57
2022/07/18 14:00:14;;;;;;;4.00;1.50;;;;;;;;;;758911;184;627554;-58
2022/07/18 14:02:40;;;;;;;2.40;1.10;;;;;;;;;;757495;183;631440;-57
2022/07/18 14:05:06;;;;;;;2.67;1.90;;;;;;;;;;742106;185;653635;-57
2022/07/18 14:07:32;;;;;;;3.43;1.70;;;;;;;;;;753704;184;620596;-58
2022/07/18 14:09:58;;;;;;;3.20;1.47;;;;;;;;;;757621;185;618905;-57
2022/07/18 14:12:24;;;;;;;4.53;1.50;;;;;;;;;;752923;185;630207;-57
2022/07/18 14:14:50;;;;;;;3.17;1.70;;;;;;;;;;755190;185;638257;-57
2022/07/18 14:17:16;;;;;;;3.13;1.43;;;;;;;;;;757128;185;624792;-57
2022/07/18 14:19:42;;;;;;;4.13;1.37;;;;;;;;;;752696;185;618974;-57
2022/07/18 14:22:09;;;;;;;3.90;1.80;;;;;;;;;;753626;185;630959;-57
2022/07/18 14:24:33;;;;;;;3.80;1.70;;;;;;;;;;756175;185;617111;-58